Погода Эрли -Бична неделю

Тасмания, Австралия

13 - 19 июня
  • 13июня
    Сегодня
    +12°
    +27°
    Ясно и безоблачно
    ВремяПогодаТемператураВлажностьДавлениеВетер, м/сВероятность осадков
    01:00Практически безоблачно+12°C90 %761 мм1.5 м/с5 %
    04:00Ясно и безоблачно+13°C70 %761 мм2.5 м/с5 %
    07:00Ясно и безоблачно+11°C69 %762 мм2.8 м/с5 %
    10:00Ясно и безоблачно+23°C39 %763 мм6.1 м/с5 %
    13:00Ясно и безоблачно+26°C33 %762 мм5.5 м/с5 %
    16:00Ясно и безоблачно+25°C39 %761 мм5.6 м/с5 %
    19:00Ясно и безоблачно+18°C56 %762 мм4.1 м/с5 %
    22:00Ясно и безоблачно+15°C74 %763 мм3.8 м/с5 %
  • 14июня
    Пятница
    +11°
    +25°
    Ясно и безоблачно
    ВремяПогодаТемператураВлажностьДавлениеВетер, м/сВероятность осадков
    01:00Ясно и безоблачно+13°C81 %763 мм3.2 м/с5 %
    04:00Ясно и безоблачно+12°C79 %762 мм3.4 м/с5 %
    07:00Ясно и безоблачно+12°C75 %763 мм3.9 м/с5 %
    10:00Ясно и безоблачно+22°C62 %764 мм3.7 м/с5 %
    13:00Ясно и безоблачно+24°C57 %762 мм2.7 м/с5 %
    16:00Ясно и безоблачно+24°C58 %761 мм3.1 м/с5 %
    19:00Ясно и безоблачно+19°C70 %762 мм1.8 м/с5 %
    22:00Ясно и безоблачно+17°C77 %762 мм1.5 м/с5 %
  • 15июня
    Суббота
    +13°
    +26°
    Ясно и безоблачно
    ВремяПогодаТемператураВлажностьДавлениеВетер, м/сВероятность осадков
    01:00Ясно и безоблачно+14°C88 %762 мм2.0 м/с2 %
    04:00Облачно с прояснениями+13°C87 %761 мм1.9 м/с3 %
    07:00Облачно с прояснениями+12°C90 %762 мм1.4 м/с2 %
    10:00Ясно и безоблачно+23°C67 %762 мм0.9 м/с5 %
    13:00Ясно и безоблачно+26°C60 %760 мм3.4 м/с5 %
    16:00Ясно и безоблачно+24°C64 %759 мм5.2 м/с5 %
    19:00Ясно и безоблачно+20°C79 %760 мм3.7 м/с5 %
    22:00Ясно и безоблачно+17°C89 %761 мм2.0 м/с5 %
  • 16июня
    Воскресенье
    +11°
    +30°
    Ясно и безоблачно
    ВремяПогодаТемператураВлажностьДавлениеВетер, м/сВероятность осадков
    01:00Ясно и безоблачно+15°C91 %761 мм2.1 м/с5 %
    04:00Ясно и безоблачно+14°C90 %760 мм2.7 м/с5 %
    07:00Ясно и безоблачно+12°C88 %761 мм2.0 м/с5 %
    10:00Ясно и безоблачно+24°C48 %762 мм2.2 м/с5 %
    13:00Ясно и безоблачно+28°C48 %760 мм4.2 м/с5 %
    16:00Ясно и безоблачно+25°C58 %760 мм5.6 м/с5 %
    19:00Ясно и безоблачно+19°C69 %762 мм3.7 м/с5 %
    22:00Ясно и безоблачно+16°C79 %763 мм2.5 м/с5 %
  • 17июня
    Понедельник
    +11°
    +28°
    Ясно и безоблачно
    ВремяПогодаТемператураВлажностьДавлениеВетер, м/сВероятность осадков
    01:00Ясно и безоблачно+14°C84 %762 мм2.5 м/с3 %
    04:00Ясно и безоблачно+13°C85 %762 мм2.2 м/с5 %
    07:00Ясно и безоблачно+11°C74 %763 мм2.7 м/с5 %
    10:00Ясно и безоблачно+23°C45 %763 мм1.5 м/с5 %
    13:00Ясно и безоблачно+25°C42 %761 мм2.9 м/с5 %
    16:00Ясно и безоблачно+23°C53 %761 мм4.2 м/с5 %
    19:00Ясно и безоблачно+18°C60 %762 мм2.7 м/с5 %
    22:00Ясно и безоблачно+16°C74 %763 мм2.8 м/с5 %
Мы используем cookies
Соглашаюсь